Time;durP1;ratioP1;P1;durP2;ratioP2;P2;SDS_P1;SDS_P2;PMS_P1;PMS_P2;Temp;Humidity;BMP_temperature;BMP_pressure;BME280_temperature;BME280_humidity;BME280_pressure;Samples;Min_cycle;Max_cycle;Signal;HPM_P1;HPM_P2
2020/12/02 00:00:01;;;;;;;30.73;18.70;;;2.80;99.90;;;;;;5088029;28;20513;-63
2020/12/02 00:02:30;;;;;;;23.63;16.63;;;2.80;99.90;;;;;;5088710;28;20458;-62
2020/12/02 00:05:00;;;;;;;28.20;17.13;;;2.70;99.90;;;;;;5089048;28;20434;-62
2020/12/02 00:07:29;;;;;;;37.10;18.77;;;2.70;99.90;;;;;;5088632;28;20453;-61
2020/12/02 00:09:56;;;;;;;28.80;16.53;;;2.70;99.90;;;;;;5087629;28;20543;-61
2020/12/02 00:12:22;;;;;;;32.20;17.37;;;2.70;99.90;;;;;;5088152;28;20450;-62
2020/12/02 00:14:50;;;;;;;30.17;18.30;;;2.70;99.90;;;;;;5087765;28;20466;-62
2020/12/02 00:17:18;;;;;;;33.50;19.90;;;2.70;99.90;;;;;;5088999;28;20438;-61
2020/12/02 00:19:54;;;;;;;22.90;14.53;;;2.70;99.90;;;;;;5088414;28;20512;-61
2020/12/02 00:22:23;;;;;;;31.77;18.13;;;2.80;99.90;;;;;;5303007;22;20433;-63
2020/12/02 00:24:52;;;;;;;40.10;19.83;;;2.80;99.90;;;;;;5089871;28;20462;-62
2020/12/02 00:27:27;;;;;;;30.73;16.40;;;2.80;99.90;;;;;;5095801;28;20442;-63
2020/12/02 00:29:55;;;;;;;34.43;18.27;;;2.70;99.90;;;;;;5096257;28;20456;-61
2020/12/02 00:32:27;;;;;;;33.73;17.97;;;2.70;99.90;;;;;;5095470;28;20461;-61
2020/12/02 00:34:54;;;;;;;27.23;17.30;;;2.80;99.90;;;;;;5095843;28;20423;-61
2020/12/02 00:37:20;;;;;;;31.90;18.67;;;2.80;99.90;;;;;;5095217;28;20422;-61
2020/12/02 00:39:47;;;;;;;29.27;18.40;;;2.80;99.90;;;;;;5095437;28;20478;-61
2020/12/02 00:42:13;;;;;;;33.10;17.10;;;2.80;99.90;;;;;;5095367;28;20442;-62
2020/12/02 00:44:40;;;;;;;32.13;21.00;;;2.80;99.90;;;;;;5095286;28;20447;-61
2020/12/02 00:47:10;;;;;;;28.13;17.53;;;2.80;99.90;;;;;;5095320;28;20517;-61
2020/12/02 00:49:37;;;;;;;27.93;18.13;;;2.80;99.90;;;;;;5095273;28;20434;-62
2020/12/02 00:52:05;;;;;;;36.80;20.57;;;2.80;99.90;;;;;;5095627;28;20426;-61
2020/12/02 00:54:31;;;;;;;36.77;18.67;;;2.80;99.90;;;;;;5095461;28;20465;-61
2020/12/02 00:56:57;;;;;;;38.83;18.77;;;2.80;99.90;;;;;;5095116;28;20450;-62
2020/12/02 00:59:28;;;;;;;35.57;17.33;;;2.80;99.90;;;;;;5095307;28;20512;-61
2020/12/02 01:02:03;;;;;;;35.57;19.43;;;2.80;99.90;;;;;;5094972;28;20438;-62
2020/12/02 01:04:30;;;;;;;32.70;17.70;;;2.80;99.90;;;;;;5095574;28;20418;-61
2020/12/02 01:06:57;;;;;;;37.23;17.37;;;2.80;99.90;;;;;;5094901;28;20498;-61
2020/12/02 01:09:25;;;;;;;31.03;18.43;;;2.80;99.90;;;;;;5095120;28;20449;-62
2020/12/02 01:11:55;;;;;;;34.07;19.10;;;2.70;99.90;;;;;;5094879;28;20449;-61
2020/12/02 01:14:25;;;;;;;33.30;19.40;;;2.70;99.90;;;;;;5094961;28;20469;-61
2020/12/02 01:16:54;;;;;;;32.13;16.73;;;2.70;99.90;;;;;;5095902;28;20423;-62
2020/12/02 01:19:23;;;;;;;30.00;18.07;;;2.70;99.90;;;;;;5095763;28;20512;-62
2020/12/02 01:21:54;;;;;;;35.80;18.30;;;2.70;99.90;;;;;;5098159;28;20454;-62
2020/12/02 01:24:25;;;;;;;25.90;17.37;;;2.60;99.90;;;;;;5097921;28;20485;-61
2020/12/02 01:26:57;;;;;;;37.60;18.47;;;2.60;99.90;;;;;;5098048;28;20422;-62
2020/12/02 01:29:24;;;;;;;34.20;16.30;;;2.60;99.90;;;;;;5097480;28;20423;-61
2020/12/02 01:31:53;;;;;;;35.07;18.37;;;2.60;99.90;;;;;;5096676;28;20494;-61
2020/12/02 01:34:20;;;;;;;31.10;19.30;;;2.60;99.90;;;;;;5097014;28;20443;-62
2020/12/02 01:37:18;;;;;;;29.50;16.97;;;2.60;99.90;;;;;;5099011;28;20446;-61
2020/12/02 01:39:56;;;;;;;29.07;16.90;;;2.50;99.90;;;;;;5098346;28;20474;-62
2020/12/02 01:42:23;;;;;;;33.40;18.17;;;2.50;99.90;;;;;;5099199;28;20403;-61
2020/12/02 01:44:50;;;;;;;24.10;17.03;;;2.50;99.90;;;;;;5098810;28;20483;-61
2020/12/02 01:47:30;;;;;;;26.13;16.60;;;2.50;99.90;;;;;;5098564;28;20492;-61
2020/12/02 01:50:06;;;;;;;34.90;18.97;;;2.40;99.90;;;;;;5098520;28;20419;-61
2020/12/02 01:52:57;;;;;;;32.07;19.07;;;2.40;99.90;;;;;;5098147;28;20422;-61
2020/12/02 01:55:28;;;;;;;32.50;17.90;;;2.40;99.90;;;;;;5098313;28;20458;-61
2020/12/02 01:57:59;;;;;;;32.87;19.60;;;2.40;99.90;;;;;;5097931;28;20423;-62
2020/12/02 02:00:28;;;;;;;37.13;19.60;;;2.40;99.90;;;;;;5097792;28;20490;-61
2020/12/02 02:03:02;;;;;;;32.17;18.77;;;2.40;99.90;;;;;;5097969;28;20460;-61
2020/12/02 02:05:33;;;;;;;34.27;18.90;;;2.40;99.90;;;;;;5098247;28;20438;-61
2020/12/02 02:08:00;;;;;;;28.97;17.37;;;2.40;99.90;;;;;;5098027;28;20431;-61
2020/12/02 02:10:31;;;;;;;25.43;16.13;;;2.40;99.90;;;;;;5098618;28;20439;-62
2020/12/02 02:13:33;;;;;;;34.80;18.60;;;2.40;99.90;;;;;;5098367;28;20415;-61
2020/12/02 02:16:03;;;;;;;30.27;19.17;;;2.40;99.90;;;;;;5098283;28;20470;-61
2020/12/02 02:18:32;;;;;;;38.60;20.07;;;2.30;99.90;;;;;;5097969;28;20438;-61
2020/12/02 02:21:00;;;;;;;38.40;18.40;;;2.30;99.90;;;;;;5097619;28;20512;-62
2020/12/02 02:23:28;;;;;;;34.37;19.47;;;2.30;99.90;;;;;;5098247;28;20501;-61
2020/12/02 02:26:06;;;;;;;32.97;19.40;;;2.30;99.90;;;;;;5098792;28;20435;-62
2020/12/02 02:28:35;;;;;;;33.37;17.43;;;2.30;99.90;;;;;;5098747;28;20418;-62
2020/12/02 02:31:02;;;;;;;30.67;17.33;;;2.30;99.90;;;;;;5098282;28;20431;-62
2020/12/02 02:33:29;;;;;;;31.30;18.73;;;2.30;99.90;;;;;;5098320;28;20478;-62
2020/12/02 02:35:55;;;;;;;27.47;16.37;;;2.30;99.90;;;;;;5098020;28;20521;-62
2020/12/02 02:38:23;;;;;;;36.57;19.10;;;2.30;99.90;;;;;;5098017;28;20506;-62
2020/12/02 02:40:50;;;;;;;33.73;17.73;;;2.20;99.90;;;;;;5097989;28;20462;-61
2020/12/02 02:43:17;;;;;;;31.57;18.90;;;2.20;99.90;;;;;;5097599;28;20446;-62
2020/12/02 02:45:44;;;;;;;35.53;18.63;;;2.10;99.90;;;;;;5097728;28;20481;-62
2020/12/02 02:48:10;;;;;;;32.93;19.80;;;2.10;99.90;;;;;;5097711;28;20471;-61
2020/12/02 02:50:37;;;;;;;36.03;18.90;;;2.10;99.90;;;;;;5097481;28;20453;-62
2020/12/02 02:53:14;;;;;;;36.23;18.17;;;2.10;99.90;;;;;;5097235;28;20473;-61
2020/12/02 02:55:41;;;;;;;36.20;19.47;;;2.10;99.90;;;;;;5097469;28;20402;-61
2020/12/02 02:58:08;;;;;;;32.53;17.87;;;2.10;99.90;;;;;;5097895;28;20446;-62
2020/12/02 03:00:35;;;;;;;34.77;17.43;;;2.10;99.90;;;;;;5097795;28;20486;-62
2020/12/02 03:03:03;;;;;;;31.60;18.27;;;2.20;99.90;;;;;;5181343;22;20458;-59
2020/12/02 03:05:30;;;;;;;40.07;18.90;;;2.20;99.90;;;;;;5516345;22;20492;-61
2020/12/02 03:07:59;;;;;;;36.03;18.07;;;2.20;99.90;;;;;;5138621;28;20448;-62
2020/12/02 03:10:29;;;;;;;48.30;24.10;;;2.10;99.90;;;;;;5138691;28;20432;-61
2020/12/02 03:12:57;;;;;;;44.90;26.37;;;2.10;99.90;;;;;;5138462;28;20464;-61
2020/12/02 03:15:24;;;;;;;45.70;24.43;;;2.10;99.90;;;;;;5137970;28;20454;-62
2020/12/02 03:17:51;;;;;;;37.03;22.53;;;2.10;99.90;;;;;;5137714;28;20475;-61
2020/12/02 03:20:21;;;;;;;45.33;22.10;;;2.10;99.90;;;;;;5138414;28;20476;-61
2020/12/02 03:22:48;;;;;;;33.40;17.90;;;2.20;99.90;;;;;;5137959;28;20463;-62
2020/12/02 03:25:23;;;;;;;40.33;21.47;;;2.10;99.90;;;;;;5137432;28;20484;-61
2020/12/02 03:27:49;;;;;;;36.77;19.87;;;2.10;99.90;;;;;;5137834;28;20761;-62
2020/12/02 03:30:17;;;;;;;37.13;20.60;;;2.10;99.90;;;;;;5138401;28;20486;-61
2020/12/02 03:32:43;;;;;;;34.20;18.80;;;2.10;99.90;;;;;;5138056;28;20421;-62
2020/12/02 03:35:11;;;;;;;43.13;22.23;;;2.00;99.90;;;;;;5138370;28;20440;-61
2020/12/02 03:37:37;;;;;;;29.17;17.67;;;2.00;99.90;;;;;;5138088;28;20449;-62
2020/12/02 03:40:04;;;;;;;29.27;17.43;;;2.00;99.90;;;;;;5138160;28;20460;-62
2020/12/02 03:42:30;;;;;;;31.97;17.90;;;2.00;99.90;;;;;;5137286;28;20456;-62
2020/12/02 03:44:57;;;;;;;35.00;19.40;;;1.90;99.90;;;;;;5137603;28;20464;-61
2020/12/02 03:47:23;;;;;;;36.10;19.17;;;1.90;99.90;;;;;;5137730;28;20476;-61
2020/12/02 03:49:49;;;;;;;46.30;21.33;;;1.90;99.90;;;;;;5137297;28;20482;-62
2020/12/02 03:52:17;;;;;;;38.80;20.20;;;1.80;99.90;;;;;;5137077;28;20441;-62
2020/12/02 03:54:43;;;;;;;36.53;20.50;;;1.80;99.90;;;;;;5137288;28;20456;-62
2020/12/02 03:57:10;;;;;;;37.53;20.47;;;1.80;99.90;;;;;;5137448;28;20440;-61
2020/12/02 03:59:36;;;;;;;33.80;18.23;;;1.80;99.90;;;;;;5137206;28;20449;-61
2020/12/02 04:02:02;;;;;;;36.93;20.00;;;1.80;99.90;;;;;;5137403;28;20520;-61
2020/12/02 04:04:29;;;;;;;34.57;18.97;;;1.80;99.90;;;;;;5137593;28;20465;-62
2020/12/02 04:06:55;;;;;;;33.43;17.93;;;1.70;99.90;;;;;;5137641;28;20492;-61
2020/12/02 04:09:23;;;;;;;38.60;19.57;;;1.80;99.90;;;;;;5137280;28;20457;-61
2020/12/02 04:11:49;;;;;;;34.10;20.90;;;1.80;99.90;;;;;;5137740;28;20458;-62
2020/12/02 04:14:16;;;;;;;42.80;21.50;;;1.80;99.90;;;;;;5137856;28;20440;-61
2020/12/02 04:16:42;;;;;;;31.13;18.80;;;1.80;99.90;;;;;;5137783;28;20449;-61
2020/12/02 04:19:09;;;;;;;35.03;18.77;;;1.70;99.90;;;;;;5137471;28;20472;-61
2020/12/02 04:21:35;;;;;;;34.07;19.47;;;1.80;99.90;;;;;;5137119;28;20488;-62
2020/12/02 04:24:01;;;;;;;34.50;20.07;;;1.80;99.90;;;;;;5133392;28;20460;-61
2020/12/02 04:26:29;;;;;;;42.20;19.23;;;1.80;99.90;;;;;;5132325;28;20511;-61
2020/12/02 04:28:55;;;;;;;35.87;20.13;;;1.80;99.90;;;;;;5131569;28;20456;-62
2020/12/02 04:31:21;;;;;;;35.90;20.07;;;1.80;99.90;;;;;;5132816;28;20461;-63
2020/12/02 04:33:48;;;;;;;36.83;20.20;;;1.80;99.90;;;;;;5135818;28;20473;-62
2020/12/02 04:36:14;;;;;;;32.37;20.17;;;1.80;99.90;;;;;;5137638;28;20444;-61
2020/12/02 04:38:41;;;;;;;35.87;19.70;;;1.80;99.90;;;;;;5137348;28;20451;-61
2020/12/02 04:41:11;;;;;;;28.57;17.27;;;1.80;99.90;;;;;;5137394;28;20500;-62
2020/12/02 04:43:41;;;;;;;33.50;19.17;;;1.80;99.90;;;;;;5137521;28;20413;-62
2020/12/02 04:46:14;;;;;;;40.17;21.03;;;1.80;99.90;;;;;;5137493;28;20468;-61
2020/12/02 04:48:42;;;;;;;31.83;19.47;;;1.80;99.90;;;;;;5137578;28;20429;-61
2020/12/02 04:51:15;;;;;;;36.80;19.13;;;1.70;99.90;;;;;;5137031;28;20432;-61
2020/12/02 04:53:45;;;;;;;38.80;20.90;;;1.70;99.90;;;;;;5137437;28;20417;-62
2020/12/02 04:56:11;;;;;;;41.97;20.00;;;1.70;99.90;;;;;;5141425;28;20432;-62
2020/12/02 04:58:40;;;;;;;37.13;20.33;;;1.60;99.90;;;;;;5141055;28;20412;-61
2020/12/02 05:01:17;;;;;;;39.70;19.10;;;1.60;99.90;;;;;;5140708;28;20464;-61
2020/12/02 05:03:52;;;;;;;38.73;19.43;;;1.60;99.90;;;;;;5140501;28;20404;-61
2020/12/02 05:06:24;;;;;;;41.30;20.90;;;1.70;99.90;;;;;;5140455;28;20495;-61
2020/12/02 05:08:51;;;;;;;36.67;21.50;;;1.70;99.90;;;;;;5139945;28;20929;-61
2020/12/02 05:11:18;;;;;;;36.27;20.07;;;1.70;99.90;;;;;;5140592;28;20439;-61
2020/12/02 05:14:00;;;;;;;38.70;20.33;;;1.70;99.90;;;;;;5140400;28;20445;-62
2020/12/02 05:16:26;;;;;;;40.20;20.20;;;1.70;99.90;;;;;;5140648;28;20412;-61
2020/12/02 05:19:01;;;;;;;37.97;19.10;;;1.70;99.90;;;;;;5140682;28;20436;-61
2020/12/02 05:21:40;;;;;;;35.80;20.33;;;1.70;99.90;;;;;;5140227;28;20971;-61
2020/12/02 05:24:10;;;;;;;35.87;19.80;;;1.70;99.90;;;;;;5140400;28;20409;-61
2020/12/02 05:26:39;;;;;;;33.93;19.60;;;1.80;99.90;;;;;;5140315;28;20464;-62
2020/12/02 05:29:22;;;;;;;34.93;20.23;;;1.80;99.90;;;;;;5140577;28;20445;-61
2020/12/02 05:31:50;;;;;;;36.60;20.00;;;1.80;99.90;;;;;;5140583;28;20517;-61
2020/12/02 05:34:20;;;;;;;39.00;20.13;;;1.80;99.90;;;;;;5140546;28;20420;-62
2020/12/02 05:36:51;;;;;;;38.23;19.83;;;1.70;99.90;;;;;;5140112;28;20462;-61
2020/12/02 05:39:28;;;;;;;34.23;19.27;;;1.70;99.90;;;;;;5140004;28;20425;-62
2020/12/02 05:41:57;;;;;;;46.43;20.67;;;1.60;99.90;;;;;;5140546;28;20803;-61
2020/12/02 05:44:31;;;;;;;42.63;23.13;;;1.60;99.90;;;;;;5140106;28;20421;-62
2020/12/02 05:46:59;;;;;;;36.30;20.90;;;1.60;99.90;;;;;;5139967;28;20449;-61
2020/12/02 05:49:41;;;;;;;37.27;19.90;;;1.60;99.90;;;;;;5139453;28;20447;-61
2020/12/02 05:52:18;;;;;;;38.87;18.93;;;1.70;99.90;;;;;;5139871;28;20429;-62
2020/12/02 05:54:47;;;;;;;35.20;18.83;;;1.60;99.90;;;;;;5139593;28;20429;-62
2020/12/02 05:57:16;;;;;;;34.50;21.17;;;1.60;99.90;;;;;;5139976;28;20454;-62
2020/12/02 05:59:46;;;;;;;41.10;21.30;;;1.60;99.90;;;;;;5139909;28;20448;-61
2020/12/02 06:02:15;;;;;;;39.27;21.97;;;1.60;99.90;;;;;;5139933;28;20428;-62
2020/12/02 06:04:42;;;;;;;33.23;20.10;;;1.60;99.90;;;;;;5140307;28;20467;-62
2020/12/02 06:07:09;;;;;;;35.90;21.33;;;1.60;99.90;;;;;;5139371;28;20453;-61
2020/12/02 06:09:43;;;;;;;38.03;20.43;;;1.60;99.90;;;;;;5139952;28;20440;-62
2020/12/02 06:12:13;;;;;;;37.73;20.30;;;1.60;99.90;;;;;;5140406;28;20413;-62
2020/12/02 06:14:41;;;;;;;40.33;20.40;;;1.60;99.90;;;;;;5139661;28;20455;-62
2020/12/02 06:17:13;;;;;;;40.40;22.10;;;1.60;99.90;;;;;;5139233;28;20472;-61
2020/12/02 06:19:49;;;;;;;38.90;20.80;;;1.60;99.90;;;;;;5138979;28;20452;-63
2020/12/02 06:22:34;;;;;;;37.90;20.70;;;1.60;99.90;;;;;;5139183;28;20440;-62
2020/12/02 06:25:00;;;;;;;43.13;22.17;;;1.70;99.90;;;;;;5138939;28;20789;-62
2020/12/02 06:27:44;;;;;;;45.67;21.17;;;1.70;99.90;;;;;;5138690;28;20452;-61
2020/12/02 06:30:20;;;;;;;33.67;20.20;;;1.60;99.90;;;;;;5139193;28;20428;-61
2020/12/02 06:33:18;;;;;;;45.63;20.27;;;1.60;99.90;;;;;;5139658;28;20436;-63
2020/12/02 06:35:45;;;;;;;38.97;20.30;;;1.60;99.90;;;;;;5140110;28;20425;-62
2020/12/02 06:38:14;;;;;;;39.27;20.00;;;1.60;99.90;;;;;;5140013;28;20445;-62
2020/12/02 06:41:04;;;;;;;35.27;19.20;;;1.60;99.90;;;;;;5139895;28;20491;-61
2020/12/02 06:43:32;;;;;;;47.40;20.17;;;1.70;99.90;;;;;;5139059;28;20477;-62
2020/12/02 06:46:01;;;;;;;39.80;19.33;;;1.70;99.90;;;;;;5138256;28;20455;-61
2020/12/02 06:48:34;;;;;;;39.00;21.40;;;1.70;99.90;;;;;;5138203;28;20456;-62
2020/12/02 06:51:01;;;;;;;39.53;22.50;;;1.70;99.90;;;;;;5139206;28;20439;-62
2020/12/02 06:53:28;;;;;;;39.27;21.63;;;1.70;99.90;;;;;;5139433;28;20425;-62
2020/12/02 06:55:58;;;;;;;45.07;23.07;;;1.80;99.90;;;;;;5138951;28;20445;-62
2020/12/02 06:58:25;;;;;;;39.10;20.93;;;1.80;99.90;;;;;;5138274;28;20416;-62
2020/12/02 07:00:56;;;;;;;43.83;23.87;;;1.80;99.90;;;;;;5138811;28;20469;-61
2020/12/02 07:03:25;;;;;;;45.60;24.23;;;1.80;99.90;;;;;;5138348;28;20425;-61
2020/12/02 07:06:08;;;;;;;47.40;24.37;;;1.90;99.90;;;;;;5137987;28;20472;-61
2020/12/02 07:08:37;;;;;;;39.10;21.93;;;1.90;99.90;;;;;;5137960;28;20448;-62
2020/12/02 07:11:07;;;;;;;45.37;23.90;;;1.90;99.90;;;;;;5138050;28;20444;-61
2020/12/02 07:13:37;;;;;;;38.40;21.00;;;1.90;99.90;;;;;;5138119;28;20425;-61
2020/12/02 07:16:13;;;;;;;45.40;20.70;;;1.90;99.90;;;;;;5138467;28;20444;-62
2020/12/02 07:18:39;;;;;;;47.43;24.40;;;2.00;99.90;;;;;;5137022;28;20449;-62
2020/12/02 07:21:19;;;;;;;37.30;24.40;;;2.00;99.90;;;;;;5137673;28;20480;-61
2020/12/02 07:23:46;;;;;;;41.83;20.80;;;2.00;99.90;;;;;;5137362;28;20445;-62
2020/12/02 07:26:14;;;;;;;43.57;23.50;;;2.10;99.90;;;;;;5137405;28;20522;-61
2020/12/02 07:28:40;;;;;;;44.00;22.37;;;2.10;99.90;;;;;;5136444;28;20429;-62
2020/12/02 07:31:22;;;;;;;44.77;26.77;;;2.10;99.90;;;;;;5136141;28;20827;-61
2020/12/02 07:34:04;;;;;;;49.50;25.53;;;2.10;99.90;;;;;;5136345;28;20471;-62
2020/12/02 07:36:34;;;;;;;37.27;21.50;;;2.10;99.90;;;;;;5137022;28;20450;-61
2020/12/02 07:39:05;;;;;;;41.73;22.80;;;2.20;99.90;;;;;;5137959;28;20454;-62
2020/12/02 07:41:47;;;;;;;43.00;21.67;;;2.20;99.90;;;;;;5137250;28;20472;-62
2020/12/02 07:44:14;;;;;;;39.17;22.60;;;2.20;99.90;;;;;;5119763;28;20448;-62
2020/12/02 07:46:41;;;;;;;45.50;24.43;;;2.20;99.90;;;;;;5125834;28;20429;-61
2020/12/02 07:49:09;;;;;;;43.17;21.87;;;2.20;99.90;;;;;;5126571;28;20912;-62
2020/12/02 07:51:44;;;;;;;45.60;23.33;;;2.30;99.90;;;;;;5124652;28;20489;-61
2020/12/02 07:54:16;;;;;;;59.33;23.83;;;2.40;99.90;;;;;;5131392;28;20448;-62
2020/12/02 07:56:46;;;;;;;44.93;24.53;;;2.30;99.90;;;;;;5129278;28;20470;-62
2020/12/02 07:59:18;;;;;;;46.03;23.70;;;2.30;99.90;;;;;;5137153;28;20412;-62
2020/12/02 08:02:06;;;;;;;43.57;23.33;;;2.40;99.90;;;;;;5136302;28;20464;-61
2020/12/02 08:04:38;;;;;;;45.13;23.37;;;2.40;99.90;;;;;;5135048;28;20425;-61
2020/12/02 08:07:14;;;;;;;42.10;24.23;;;2.50;99.90;;;;;;5136607;28;20461;-62
2020/12/02 08:09:43;;;;;;;49.27;23.97;;;2.60;99.90;;;;;;5136535;28;20458;-61
2020/12/02 08:12:13;;;;;;;46.07;25.10;;;2.70;99.90;;;;;;5136315;28;20468;-61
2020/12/02 08:14:42;;;;;;;42.27;25.30;;;2.60;99.90;;;;;;5135893;28;20424;-59
2020/12/02 08:17:19;;;;;;;43.17;23.97;;;2.70;99.90;;;;;;5135647;28;20473;-62
2020/12/02 08:19:48;;;;;;;49.30;24.73;;;2.60;99.90;;;;;;5136390;28;20426;-54
2020/12/02 08:22:28;;;;;;;54.60;25.57;;;2.60;99.90;;;;;;5136031;28;20458;-58
2020/12/02 08:25:14;;;;;;;45.27;21.73;;;2.90;99.90;;;;;;5129687;28;20455;-57
2020/12/02 08:27:46;;;;;;;45.60;24.40;;;2.80;99.90;;;;;;5107416;28;20434;-53
2020/12/02 08:30:17;;;;;;;46.60;24.13;;;2.80;99.90;;;;;;5110653;28;20429;-57
2020/12/02 08:32:50;;;;;;;48.73;25.00;;;2.80;99.90;;;;;;5131374;28;20460;-50
2020/12/02 08:35:37;;;;;;;41.40;24.80;;;2.80;99.90;;;;;;5113455;28;20750;-54
2020/12/02 08:38:04;;;;;;;46.13;23.90;;;2.90;99.90;;;;;;5118158;28;20475;-50
2020/12/02 08:40:43;;;;;;;48.30;25.20;;;2.90;99.90;;;;;;5129470;28;20472;-52
2020/12/02 08:43:35;;;;;;;55.20;25.40;;;2.90;99.90;;;;;;5138398;28;20421;-54
2020/12/02 08:46:09;;;;;;;54.47;25.70;;;2.90;99.90;;;;;;5136072;28;20450;-56
2020/12/02 08:48:36;;;;;;;58.70;29.17;;;2.90;99.90;;;;;;5130252;28;20458;-57
2020/12/02 08:51:05;;;;;;;53.87;27.83;;;3.10;99.90;;;;;;5139552;28;20440;-57
2020/12/02 08:53:33;;;;;;;49.30;26.20;;;3.10;99.90;;;;;;5130332;28;20946;-55
2020/12/02 08:56:01;;;;;;;54.80;27.03;;;3.10;99.90;;;;;;5131483;28;20452;-54
2020/12/02 08:58:28;;;;;;;51.77;27.00;;;3.10;99.90;;;;;;5131411;28;20451;-51
2020/12/02 09:00:54;;;;;;;45.43;25.97;;;3.10;99.90;;;;;;5130751;28;20480;-53
2020/12/02 09:03:23;;;;;;;47.87;26.67;;;3.10;99.90;;;;;;5130686;28;20456;-52
2020/12/02 09:05:51;;;;;;;48.63;25.17;;;3.20;99.90;;;;;;5131622;28;20803;-57
2020/12/02 09:08:17;;;;;;;44.20;24.00;;;3.20;99.90;;;;;;5132952;28;20451;-58
2020/12/02 09:10:45;;;;;;;52.23;26.67;;;3.20;99.90;;;;;;5132393;28;20462;-55
2020/12/02 09:13:13;;;;;;;52.77;25.30;;;3.20;99.90;;;;;;5132647;28;20482;-58
2020/12/02 09:15:39;;;;;;;50.30;23.97;;;3.10;99.90;;;;;;5132934;28;20440;-56
2020/12/02 09:18:06;;;;;;;47.50;24.53;;;3.10;99.90;;;;;;5133507;28;20440;-57
2020/12/02 09:20:32;;;;;;;52.37;29.03;;;3.20;99.90;;;;;;5133034;28;20480;-56
2020/12/02 09:22:59;;;;;;;51.73;29.20;;;3.10;99.90;;;;;;5132366;28;20456;-58
2020/12/02 09:25:26;;;;;;;45.60;26.50;;;3.10;99.90;;;;;;5124905;28;20564;-57
2020/12/02 09:27:54;;;;;;;50.03;25.87;;;3.20;99.90;;;;;;5138167;28;20441;-57
2020/12/02 09:30:21;;;;;;;49.10;27.80;;;3.20;99.90;;;;;;5138320;28;20447;-56
2020/12/02 09:32:48;;;;;;;50.50;27.20;;;3.30;99.90;;;;;;5128546;28;20436;-54
2020/12/02 09:35:14;;;;;;;49.73;27.07;;;3.30;99.90;;;;;;5128644;28;20460;-56
2020/12/02 09:37:41;;;;;;;54.30;28.73;;;3.40;99.90;;;;;;5137950;28;20433;-51
2020/12/02 09:40:13;;;;;;;58.00;29.77;;;3.40;99.90;;;;;;5137694;28;20453;-55
2020/12/02 09:43:01;;;;;;;51.97;25.87;;;3.40;99.90;;;;;;5136412;28;20482;-60
2020/12/02 09:45:39;;;;;;;50.03;25.90;;;3.40;99.90;;;;;;5137788;28;20484;-62
2020/12/02 09:48:12;;;;;;;48.87;26.40;;;3.40;99.90;;;;;;5137379;28;20444;-62
2020/12/02 09:50:39;;;;;;;62.73;29.70;;;3.50;99.90;;;;;;5135557;28;20449;-63
2020/12/02 09:53:15;;;;;;;51.47;26.50;;;3.60;99.90;;;;;;5125209;28;20449;-61
2020/12/02 09:55:42;;;;;;;51.93;27.77;;;3.70;99.90;;;;;;5122795;28;20428;-63
2020/12/02 09:58:10;;;;;;;55.53;28.93;;;3.70;99.90;;;;;;5127703;28;20563;-64
2020/12/02 10:00:38;;;;;;;70.23;30.80;;;3.70;99.90;;;;;;5126282;28;20477;-63
2020/12/02 10:03:41;;;;;;;47.47;25.93;;;3.70;99.90;;;;;;5125093;28;20467;-61
2020/12/02 10:06:45;;;;;;;52.30;27.70;;;3.70;99.90;;;;;;5126401;28;20788;-61
2020/12/02 10:09:34;;;;;;;59.60;28.80;;;3.80;99.90;;;;;;5126552;28;20442;-63
2020/12/02 10:12:09;;;;;;;64.87;30.60;;;3.80;99.90;;;;;;5136809;28;20483;-61
2020/12/02 10:15:02;;;;;;;59.27;28.90;;;3.80;99.90;;;;;;5135857;28;20444;-63
2020/12/02 10:18:11;;;;;;;50.47;25.50;;;3.90;99.90;;;;;;5124876;28;20512;-62
2020/12/02 10:20:43;;;;;;;64.50;25.80;;;4.00;99.90;;;;;;5085831;28;20482;-62
2020/12/02 10:23:40;;;;;;;52.53;25.90;;;4.00;99.90;;;;;;5135105;28;20433;-63
2020/12/02 10:26:37;;;;;;;43.27;27.17;;;4.00;99.90;;;;;;5134861;28;20432;-63
2020/12/02 10:29:12;;;;;;;49.70;27.70;;;4.00;99.90;;;;;;5125634;28;20421;-61
2020/12/02 10:31:50;;;;;;;47.87;27.70;;;4.10;99.90;;;;;;5132090;28;20425;-58
2020/12/02 10:34:20;;;;;;;43.60;25.73;;;4.10;99.90;;;;;;5120893;28;20501;-59
2020/12/02 10:36:52;;;;;;;53.85;31.13;;;4.10;99.90;;;;;;5124196;28;20805;-60
2020/12/02 10:39:22;;;;;;;54.60;27.77;;;4.20;99.90;;;;;;5124601;28;20615;-61
2020/12/02 10:41:59;;;;;;;57.30;33.83;;;4.30;99.90;;;;;;5114884;28;20506;-59
2020/12/02 10:44:39;;;;;;;47.23;26.93;;;4.30;99.90;;;;;;5125272;28;20431;-60
2020/12/02 10:47:44;;;;;;;43.47;27.47;;;4.40;99.90;;;;;;5133880;28;20452;-59
2020/12/02 10:50:11;;;;;;;50.20;27.20;;;4.40;99.90;;;;;;5124486;28;20474;-61
2020/12/02 10:52:40;;;;;;;53.57;26.50;;;4.40;99.90;;;;;;5123006;28;20503;-61
2020/12/02 10:55:13;;;;;;;46.40;26.60;;;4.40;99.90;;;;;;5123404;28;20444;-60
2020/12/02 10:57:41;;;;;;;61.33;26.20;;;4.40;99.90;;;;;;5124049;28;20805;-60
2020/12/02 11:00:11;;;;;;;52.33;26.37;;;4.40;99.90;;;;;;5123164;28;20939;-62
2020/12/02 11:02:38;;;;;;;46.40;27.17;;;4.40;99.90;;;;;;5122188;28;20468;-59
2020/12/02 11:05:09;;;;;;;57.03;29.83;;;4.40;99.90;;;;;;5125214;28;20444;-60
2020/12/02 11:07:44;;;;;;;52.30;28.47;;;4.50;99.90;;;;;;5133148;28;20429;-62
2020/12/02 11:10:15;;;;;;;60.73;27.80;;;4.50;99.90;;;;;;5127688;28;20460;-55
2020/12/02 11:13:14;;;;;;;61.60;29.30;;;4.50;99.90;;;;;;5122304;28;20833;-62
2020/12/02 11:15:49;;;;;;;49.60;26.63;;;4.60;99.90;;;;;;5122728;28;20750;-60
2020/12/02 11:18:55;;;;;;;45.77;24.47;;;4.60;99.90;;;;;;5128869;28;20440;-59
2020/12/02 11:21:35;;;;;;;49.17;26.67;;;4.60;99.90;;;;;;5120294;28;20461;-62
2020/12/02 11:24:18;;;;;;;48.30;28.57;;;4.60;99.90;;;;;;5119912;28;20441;-62
2020/12/02 11:26:45;;;;;;;49.23;26.00;;;4.70;99.90;;;;;;5117040;28;20475;-61
2020/12/02 11:29:15;;;;;;;44.87;24.37;;;4.70;99.90;;;;;;5120438;28;20444;-62
2020/12/02 11:32:05;;;;;;;54.43;26.77;;;4.70;99.90;;;;;;5123080;28;20461;-63
2020/12/02 11:34:52;;;;;;;53.53;24.67;;;4.70;99.90;;;;;;5131691;28;20441;-64
2020/12/02 11:37:24;;;;;;;46.20;28.10;;;4.80;99.90;;;;;;5130851;28;20466;-62
2020/12/02 11:40:03;;;;;;;76.40;25.67;;;4.80;99.90;;;;;;5131494;28;20467;-59
2020/12/02 11:42:39;;;;;;;54.07;26.50;;;5.20;99.90;;;;;;5130647;28;20465;-60
2020/12/02 11:45:12;;;;;;;52.47;29.00;;;5.20;99.90;;;;;;5126520;28;20436;-61
2020/12/02 11:48:00;;;;;;;47.83;27.13;;;5.10;99.90;;;;;;5130066;28;20437;-61
2020/12/02 11:50:30;;;;;;;59.27;30.03;;;5.10;99.90;;;;;;5118100;28;20792;-59
2020/12/02 11:53:16;;;;;;;51.20;27.43;;;5.10;99.90;;;;;;5120395;28;20501;-60
2020/12/02 11:55:44;;;;;;;41.70;25.17;;;5.00;99.90;;;;;;5119046;28;20445;-62
2020/12/02 11:58:15;;;;;;;49.53;24.70;;;5.00;99.90;;;;;;5121610;28;20519;-62
2020/12/02 12:00:41;;;;;;;52.57;26.20;;;5.00;99.90;;;;;;5118501;28;20560;-62
2020/12/02 12:03:21;;;;;;;44.07;25.60;;;4.90;99.90;;;;;;5126697;28;20577;-61
2020/12/02 12:05:57;;;;;;;45.07;25.67;;;4.90;99.90;;;;;;5130535;28;20475;-62
2020/12/02 12:08:30;;;;;;;47.20;24.70;;;4.90;99.90;;;;;;5130647;28;20472;-61
2020/12/02 12:11:03;;;;;;;44.37;24.57;;;4.90;99.90;;;;;;5131232;28;20436;-63
2020/12/02 12:13:36;;;;;;;44.73;25.10;;;4.90;99.90;;;;;;5128475;28;20429;-64
2020/12/02 12:16:11;;;;;;;44.93;27.00;;;4.90;99.90;;;;;;5122815;28;20464;-64
2020/12/02 12:18:47;;;;;;;44.67;25.57;;;4.90;99.90;;;;;;5129129;28;20470;-63
2020/12/02 12:21:25;;;;;;;47.67;26.60;;;4.90;99.90;;;;;;5125991;28;20486;-62
2020/12/02 12:24:03;;;;;;;42.47;26.20;;;4.90;99.90;;;;;;5132203;28;20439;-64
2020/12/02 12:26:34;;;;;;;44.40;23.23;;;4.80;99.90;;;;;;5132057;28;20441;-64
2020/12/02 12:29:01;;;;;;;50.20;27.23;;;4.80;99.90;;;;;;5129327;28;20426;-63
2020/12/02 12:31:34;;;;;;;42.20;24.63;;;4.90;99.90;;;;;;5131837;28;20466;-63
2020/12/02 12:34:19;;;;;;;44.20;23.97;;;4.90;99.90;;;;;;5130480;28;20428;-62
2020/12/02 12:36:48;;;;;;;46.20;24.90;;;5.00;99.90;;;;;;5127455;28;20580;-60
2020/12/02 12:39:22;;;;;;;46.93;24.93;;;5.00;99.90;;;;;;5130364;28;20483;-61
2020/12/02 12:41:52;;;;;;;41.90;24.17;;;5.00;99.90;;;;;;5128235;28;20515;-56
2020/12/02 12:44:25;;;;;;;40.93;23.30;;;5.00;99.90;;;;;;5128853;28;20432;-60
2020/12/02 12:47:01;;;;;;;38.57;24.00;;;5.00;99.90;;;;;;5124766;28;20437;-61
2020/12/02 12:49:30;;;;;;;41.63;23.53;;;4.90;99.90;;;;;;5125974;28;20449;-62
2020/12/02 12:51:58;;;;;;;40.33;21.33;;;4.90;99.90;;;;;;5119799;28;20900;-64
2020/12/02 12:54:25;;;;;;;48.40;25.27;;;4.80;99.90;;;;;;5119581;28;20440;-63
2020/12/02 12:56:56;;;;;;;35.80;22.57;;;4.90;99.90;;;;;;5129417;28;20436;-63
2020/12/02 12:59:24;;;;;;;42.67;25.83;;;4.90;99.90;;;;;;5129030;28;20433;-65